Current Conditions
Overcast Conditions



Pressure
1022.92 (hPa) - 30.21 (inHG)
Visibility

0.4 (km) - 0.2 (miles)
   Temperature
-1  °C
30°F
-1  °C
Dewpoint
100  %
 Humidity
   Wind Speed
3  km/h
2  kts
2  mph
0.9  m/s
   Wind Direction
Calm
Due North
   Airport Data
LFLL
Location Lyon Saint-Exupéry 75 km (46.61 mi)
Metar :LFLL 060800Z VRB02KT 0350 R35L/0600N R17R/0300N R35R/0450N R17L/0400N FZFG VV/// M01/M01 Q1023 NOSIG
Fri 6th December 10:00 am
   Raw Metar Info
Raw METAR is the most common format in the world for the transmission of observational weather data. It is highly standardized through the International Civil Aviation Organization (ICAO), which allows it to be understood throughout most of the world.
   API Info
Data Provided by
https://www.checkwx.com/weather/LFLL
   © Info
CSS/SVG/PHP scripts were developed by weather34.com for use in the weather34 template © 2015-2019

Guide Info provided by Metar-Wikipedia